Time;durP1;ratioP1;P1;durP2;ratioP2;P2;SDS_P1;SDS_P2;PMS_P1;PMS_P2;Temp;Humidity;BMP_temperature;BMP_pressure;BME280_temperature;BME280_humidity;BME280_pressure;Samples;Min_cycle;Max_cycle;Signal;HPM_P1;HPM_P2
2022/10/23 00:02:02;;;;;;;21.95;11.77;;;;;;;;;;5072431;28;20045;-67
2022/10/23 00:04:28;;;;;;;17.92;11.85;;;;;;;;;;5072964;28;20048;-67
2022/10/23 00:06:54;;;;;;;22.60;12.25;;;;;;;;;;5072844;28;20037;-67
2022/10/23 00:09:21;;;;;;;20.58;11.32;;;;;;;;;;5072104;28;20202;-67
2022/10/23 00:11:49;;;;;;;20.75;12.68;;;;;;;;;;5072313;28;20058;-67
2022/10/23 00:14:15;;;;;;;17.90;12.00;;;;;;;;;;5072487;28;20052;-67
2022/10/23 00:16:41;;;;;;;18.80;13.00;;;;;;;;;;5072207;28;20051;-67
2022/10/23 00:19:07;;;;;;;19.27;12.80;;;;;;;;;;5072493;28;20040;-67
2022/10/23 00:21:33;;;;;;;22.17;13.00;;;;;;;;;;5072585;28;20522;-67
2022/10/23 00:23:59;;;;;;;16.85;12.40;;;;;;;;;;5070728;28;20132;-67
2022/10/23 00:26:26;;;;;;;16.27;12.82;;;;;;;;;;5070850;28;20045;-67
2022/10/23 00:28:52;;;;;;;20.98;13.93;;;;;;;;;;5072272;28;20474;-67
2022/10/23 00:31:19;;;;;;;21.13;13.80;;;;;;;;;;5071908;28;20043;-67
2022/10/23 00:33:45;;;;;;;20.27;13.32;;;;;;;;;;5072310;28;20382;-67
2022/10/23 00:36:12;;;;;;;18.45;12.18;;;;;;;;;;5072133;28;20044;-67
2022/10/23 00:38:39;;;;;;;17.13;12.18;;;;;;;;;;5070290;28;20060;-67
2022/10/23 00:41:06;;;;;;;15.07;12.48;;;;;;;;;;5072133;28;20029;-67
2022/10/23 00:43:32;;;;;;;18.52;13.02;;;;;;;;;;5072097;28;20040;-67
2022/10/23 00:45:58;;;;;;;17.45;11.85;;;;;;;;;;5070484;28;20040;-67
2022/10/23 00:48:28;;;;;;;21.20;12.25;;;;;;;;;;5071941;28;20048;-67
2022/10/23 00:50:54;;;;;;;20.70;12.00;;;;;;;;;;5070509;28;20045;-67
2022/10/23 00:53:21;;;;;;;17.42;11.77;;;;;;;;;;5071504;28;20089;-67
2022/10/23 00:55:48;;;;;;;15.90;11.95;;;;;;;;;;5071967;28;20145;-67
2022/10/23 00:58:15;;;;;;;17.83;11.38;;;;;;;;;;5069243;28;20391;-67
2022/10/23 01:00:46;;;;;;;17.27;11.23;;;;;;;;;;5071225;28;20043;-67
2022/10/23 01:03:13;;;;;;;14.75;10.82;;;;;;;;;;5071645;28;20037;-67
2022/10/23 01:05:49;;;;;;;16.90;11.52;;;;;;;;;;5071562;28;20062;-67
2022/10/23 01:08:17;;;;;;;15.10;11.48;;;;;;;;;;5071036;28;20036;-67
2022/10/23 01:10:45;;;;;;;18.50;11.55;;;;;;;;;;5071578;28;20036;-67
2022/10/23 01:13:13;;;;;;;17.48;11.70;;;;;;;;;;5069787;28;20060;-67
2022/10/23 01:15:51;;;;;;;18.67;13.15;;;;;;;;;;5071219;28;20786;-67
2022/10/23 01:18:25;;;;;;;17.13;11.32;;;;;;;;;;5071380;28;20036;-67
2022/10/23 01:20:57;;;;;;;20.20;12.02;;;;;;;;;;5069677;28;20048;-67
2022/10/23 01:23:59;;;;;;;16.00;11.60;;;;;;;;;;5071001;28;20123;-67
2022/10/23 01:26:30;;;;;;;18.20;11.48;;;;;;;;;;5028262;28;20041;-67
2022/10/23 01:28:56;;;;;;;22.90;14.63;;;;;;;;;;5059744;28;20044;-67
2022/10/23 01:31:30;;;;;;;14.52;11.40;;;;;;;;;;5070855;28;20115;-67
2022/10/23 01:33:59;;;;;;;20.95;13.13;;;;;;;;;;5070954;28;20032;-67
2022/10/23 01:36:27;;;;;;;21.65;12.80;;;;;;;;;;5071080;28;20126;-67
2022/10/23 01:38:55;;;;;;;21.63;13.25;;;;;;;;;;5070349;28;20044;-67
2022/10/23 01:41:40;;;;;;;19.10;11.77;;;;;;;;;;5070980;28;20044;-67
2022/10/23 01:44:11;;;;;;;21.83;12.90;;;;;;;;;;5070912;28;20072;-67
2022/10/23 01:46:38;;;;;;;20.25;12.82;;;;;;;;;;5069482;28;20040;-67
2022/10/23 01:49:07;;;;;;;26.35;13.43;;;;;;;;;;5070874;28;20043;-67
2022/10/23 01:51:34;;;;;;;19.25;12.98;;;;;;;;;;5070696;28;20037;-67
2022/10/23 01:54:00;;;;;;;19.25;12.55;;;;;;;;;;5070702;28;20178;-67
2022/10/23 01:56:28;;;;;;;20.70;11.43;;;;;;;;;;5070799;28;20080;-67
2022/10/23 01:58:56;;;;;;;19.70;12.25;;;;;;;;;;5070346;28;20490;-67
2022/10/23 02:01:24;;;;;;;15.30;11.57;;;;;;;;;;5070697;28;20043;-67
2022/10/23 02:03:50;;;;;;;18.70;12.38;;;;;;;;;;5070661;28;20040;-67
2022/10/23 02:06:16;;;;;;;20.33;13.40;;;;;;;;;;5070491;28;20037;-67
2022/10/23 02:08:42;;;;;;;21.35;12.98;;;;;;;;;;5069270;28;20122;-67
2022/10/23 02:11:16;;;;;;;20.92;12.48;;;;;;;;;;5070392;28;20044;-67
2022/10/23 02:13:44;;;;;;;16.33;11.65;;;;;;;;;;5070510;28;20097;-67
2022/10/23 02:16:13;;;;;;;21.50;12.55;;;;;;;;;;5069297;28;20048;-67
2022/10/23 02:18:51;;;;;;;21.00;12.50;;;;;;;;;;5070704;28;20070;-67
2022/10/23 02:21:21;;;;;;;21.02;12.48;;;;;;;;;;5070405;28;20102;-67
2022/10/23 02:23:47;;;;;;;16.92;11.57;;;;;;;;;;5070725;28;20493;-67
2022/10/23 02:26:25;;;;;;;21.67;13.60;;;;;;;;;;5068939;28;20120;-67
2022/10/23 02:29:01;;;;;;;18.13;12.07;;;;;;;;;;5069980;28;20594;-67
2022/10/23 02:31:27;;;;;;;19.42;12.50;;;;;;;;;;5070684;28;20094;-67
2022/10/23 02:33:53;;;;;;;16.33;11.70;;;;;;;;;;5070559;28;20105;-67
2022/10/23 02:36:19;;;;;;;17.08;12.48;;;;;;;;;;5070074;28;20040;-67
2022/10/23 02:38:45;;;;;;;17.10;11.93;;;;;;;;;;5070449;28;20048;-67
2022/10/23 02:41:30;;;;;;;17.90;12.23;;;;;;;;;;5070429;28;20407;-67
2022/10/23 02:44:01;;;;;;;18.77;11.73;;;;;;;;;;5069932;28;20123;-67
2022/10/23 02:46:39;;;;;;;20.23;12.63;;;;;;;;;;5070546;28;20028;-67
2022/10/23 02:49:18;;;;;;;17.08;11.85;;;;;;;;;;5070413;28;20043;-67
2022/10/23 02:52:00;;;;;;;16.27;11.75;;;;;;;;;;5068459;28;20051;-67
2022/10/23 02:54:31;;;;;;;18.38;12.23;;;;;;;;;;5070364;28;20087;-67
2022/10/23 02:57:14;;;;;;;21.93;11.87;;;;;;;;;;5070407;28;20387;-67
2022/10/23 02:59:46;;;;;;;22.88;12.88;;;;;;;;;;5068132;28;20384;-67
2022/10/23 03:02:20;;;;;;;23.75;12.80;;;;;;;;;;5068826;28;20044;-67
2022/10/23 03:04:47;;;;;;;17.63;11.70;;;;;;;;;;5070110;28;20048;-67
2022/10/23 03:07:13;;;;;;;21.65;12.68;;;;;;;;;;5069558;28;20048;-67
2022/10/23 03:09:39;;;;;;;20.10;12.68;;;;;;;;;;5070138;28;20037;-67
2022/10/23 03:12:05;;;;;;;24.38;13.10;;;;;;;;;;5069940;28;20700;-67
2022/10/23 03:14:31;;;;;;;21.08;12.18;;;;;;;;;;5067972;28;20067;-67
2022/10/23 03:16:57;;;;;;;19.70;12.50;;;;;;;;;;5068655;28;20195;-67
2022/10/23 03:19:23;;;;;;;18.20;11.48;;;;;;;;;;5070066;28;20045;-67
2022/10/23 03:21:50;;;;;;;19.90;12.43;;;;;;;;;;5071181;28;20057;-67
2022/10/23 03:24:16;;;;;;;16.88;12.38;;;;;;;;;;5073891;28;20038;-67
2022/10/23 03:26:42;;;;;;;23.73;13.80;;;;;;;;;;5073607;28;20044;-67
2022/10/23 03:29:08;;;;;;;19.13;12.40;;;;;;;;;;5072992;28;20028;-67
2022/10/23 03:31:34;;;;;;;26.00;13.65;;;;;;;;;;5073261;28;20074;-67
2022/10/23 03:34:00;;;;;;;21.92;13.48;;;;;;;;;;5071952;28;20055;-67
2022/10/23 03:36:26;;;;;;;22.42;13.68;;;;;;;;;;5073070;28;20043;-67
2022/10/23 03:38:52;;;;;;;25.92;14.40;;;;;;;;;;5073193;28;20418;-67
2022/10/23 03:41:18;;;;;;;18.92;13.25;;;;;;;;;;5073274;28;20044;-67
2022/10/23 03:43:44;;;;;;;22.50;13.60;;;;;;;;;;5072891;28;20037;-67
2022/10/23 03:46:11;;;;;;;23.70;13.25;;;;;;;;;;5072933;28;20040;-67
2022/10/23 03:48:38;;;;;;;24.63;14.27;;;;;;;;;;5073061;28;20036;-67
2022/10/23 03:51:07;;;;;;;29.60;13.48;;;;;;;;;;5071068;28;20170;-67
2022/10/23 03:53:33;;;;;;;21.95;13.65;;;;;;;;;;5073059;28;20040;-67
2022/10/23 03:55:59;;;;;;;26.67;14.27;;;;;;;;;;5071500;28;20047;-67
2022/10/23 03:58:25;;;;;;;26.85;14.98;;;;;;;;;;5072489;28;20036;-67
2022/10/23 04:00:51;;;;;;;23.40;14.48;;;;;;;;;;5072659;28;20052;-67
2022/10/23 04:03:17;;;;;;;26.15;14.25;;;;;;;;;;5072873;28;20136;-67
2022/10/23 04:05:43;;;;;;;18.63;13.70;;;;;;;;;;5070974;28;20486;-67
2022/10/23 04:08:09;;;;;;;26.55;14.15;;;;;;;;;;5071464;28;20113;-67
2022/10/23 04:10:35;;;;;;;23.73;14.68;;;;;;;;;;5071017;28;20170;-67
2022/10/23 04:13:01;;;;;;;22.63;13.38;;;;;;;;;;5071923;28;20545;-67
2022/10/23 04:15:28;;;;;;;21.60;14.68;;;;;;;;;;5071398;28;20127;-67
2022/10/23 04:17:54;;;;;;;23.00;14.10;;;;;;;;;;5072582;28;20518;-67
2022/10/23 04:20:20;;;;;;;26.80;14.25;;;;;;;;;;5070609;28;20052;-67
2022/10/23 04:22:46;;;;;;;19.85;15.15;;;;;;;;;;5072320;28;20123;-67
2022/10/23 04:25:12;;;;;;;23.35;13.98;;;;;;;;;;5072542;28;20041;-67
2022/10/23 04:27:38;;;;;;;23.00;14.57;;;;;;;;;;5072030;28;20526;-67
2022/10/23 04:30:04;;;;;;;22.42;13.07;;;;;;;;;;5054588;28;20072;-67
2022/10/23 04:32:30;;;;;;;22.45;13.93;;;;;;;;;;5070814;28;20067;-67
2022/10/23 04:34:56;;;;;;;21.05;13.63;;;;;;;;;;5071998;28;20040;-67
2022/10/23 04:37:22;;;;;;;28.15;14.88;;;;;;;;;;5071756;28;20048;-67
2022/10/23 04:39:49;;;;;;;17.60;12.77;;;;;;;;;;5072024;28;20100;-67
2022/10/23 04:42:15;;;;;;;21.17;13.38;;;;;;;;;;5071398;28;20041;-67
2022/10/23 04:44:41;;;;;;;20.30;12.93;;;;;;;;;;5071924;28;20040;-67
2022/10/23 04:47:07;;;;;;;26.00;14.32;;;;;;;;;;5072143;28;20090;-67
2022/10/23 04:49:33;;;;;;;20.60;12.98;;;;;;;;;;5071511;28;20078;-67
2022/10/23 04:51:59;;;;;;;19.00;14.05;;;;;;;;;;5071916;28;20049;-67
2022/10/23 04:54:25;;;;;;;22.85;14.50;;;;;;;;;;5072034;28;20044;-67
2022/10/23 04:56:51;;;;;;;19.52;14.18;;;;;;;;;;5071470;28;20253;-67
2022/10/23 04:59:17;;;;;;;23.33;14.05;;;;;;;;;;5070572;28;20076;-67
2022/10/23 05:01:43;;;;;;;22.33;14.88;;;;;;;;;;5071371;28;20040;-67
2022/10/23 05:04:09;;;;;;;28.50;15.70;;;;;;;;;;5071529;28;20089;-67
2022/10/23 05:06:35;;;;;;;20.77;13.43;;;;;;;;;;5071301;28;20040;-67
2022/10/23 05:09:01;;;;;;;21.05;14.45;;;;;;;;;;5071279;28;20041;-67
2022/10/23 05:11:28;;;;;;;21.60;14.43;;;;;;;;;;5069796;28;20518;-67
2022/10/23 05:13:54;;;;;;;26.25;14.88;;;;;;;;;;5071495;28;20365;-67
2022/10/23 05:16:27;;;;;;;24.00;14.32;;;;;;;;;;5069978;28;20055;-67
2022/10/23 05:18:53;;;;;;;25.63;14.38;;;;;;;;;;5070884;28;20040;-67
2022/10/23 05:21:25;;;;;;;26.73;15.50;;;;;;;;;;5071024;28;20060;-67
2022/10/23 05:23:51;;;;;;;25.02;14.80;;;;;;;;;;5071485;28;20047;-67
2022/10/23 05:26:17;;;;;;;25.80;15.27;;;;;;;;;;5070624;28;20063;-67
2022/10/23 05:28:43;;;;;;;27.15;14.65;;;;;;;;;;5071269;28;20041;-67
2022/10/23 05:31:10;;;;;;;23.50;14.23;;;;;;;;;;5071409;28;20040;-67
2022/10/23 05:33:36;;;;;;;23.13;14.32;;;;;;;;;;5070897;28;20340;-67
2022/10/23 05:36:02;;;;;;;26.13;15.10;;;;;;;;;;5069621;28;20044;-67
2022/10/23 05:38:30;;;;;;;22.17;14.93;;;;;;;;;;5071111;28;20529;-67
2022/10/23 05:40:56;;;;;;;22.85;14.45;;;;;;;;;;5069072;28;20040;-67
2022/10/23 05:43:22;;;;;;;25.73;15.25;;;;;;;;;;5070687;28;20317;-67
2022/10/23 05:45:48;;;;;;;26.67;14.65;;;;;;;;;;5069197;28;20067;-67
2022/10/23 05:48:15;;;;;;;24.13;14.80;;;;;;;;;;5069685;28;20041;-67
2022/10/23 05:50:40;;;;;;;24.25;14.32;;;;;;;;;;5070692;28;20040;-67
2022/10/23 05:53:07;;;;;;;21.08;14.80;;;;;;;;;;5069802;28;20539;-67
2022/10/23 05:55:33;;;;;;;25.10;14.25;;;;;;;;;;5069437;28;20044;-67
2022/10/23 05:58:01;;;;;;;20.83;13.57;;;;;;;;;;5070522;28;20051;-67
2022/10/23 06:00:27;;;;;;;19.48;14.85;;;;;;;;;;5069524;28;20088;-67
2022/10/23 06:02:53;;;;;;;22.63;13.85;;;;;;;;;;5070795;28;20045;-67
2022/10/23 06:05:19;;;;;;;19.83;13.23;;;;;;;;;;5070335;28;20135;-67
2022/10/23 06:07:45;;;;;;;26.65;14.30;;;;;;;;;;5069176;28;20111;-67
2022/10/23 06:10:11;;;;;;;23.95;14.32;;;;;;;;;;5070737;28;20044;-67
2022/10/23 06:12:37;;;;;;;22.20;13.98;;;;;;;;;;5069810;28;20079;-67
2022/10/23 06:15:04;;;;;;;21.70;14.45;;;;;;;;;;5069023;28;20044;-67
2022/10/23 06:17:30;;;;;;;19.98;14.45;;;;;;;;;;5070646;28;20045;-67
2022/10/23 06:20:01;;;;;;;24.48;13.77;;;;;;;;;;5070352;28;20398;-67
2022/10/23 06:22:30;;;;;;;21.35;13.63;;;;;;;;;;5069198;28;20494;-67
2022/10/23 06:24:56;;;;;;;22.95;15.07;;;;;;;;;;5069164;28;20040;-67
2022/10/23 06:27:22;;;;;;;23.90;14.23;;;;;;;;;;5069982;28;20037;-67
2022/10/23 06:29:48;;;;;;;26.75;13.80;;;;;;;;;;5070276;28;20036;-67
2022/10/23 06:32:14;;;;;;;26.90;14.05;;;;;;;;;;5070410;28;20074;-67
2022/10/23 06:34:40;;;;;;;27.17;14.38;;;;;;;;;;5069850;28;20483;-67
2022/10/23 06:37:06;;;;;;;22.33;14.30;;;;;;;;;;5070403;28;20041;-67
2022/10/23 06:39:34;;;;;;;22.23;14.05;;;;;;;;;;5070309;28;20083;-67
2022/10/23 06:42:00;;;;;;;19.83;14.23;;;;;;;;;;5069682;28;20067;-67
2022/10/23 06:44:26;;;;;;;26.25;14.65;;;;;;;;;;5070379;28;20475;-67
2022/10/23 06:46:52;;;;;;;23.10;13.38;;;;;;;;;;5070396;28;20041;-67
2022/10/23 06:49:18;;;;;;;28.95;14.60;;;;;;;;;;5069752;28;20032;-67
2022/10/23 06:51:44;;;;;;;31.00;14.43;;;;;;;;;;5068966;28;20076;-67
2022/10/23 06:54:11;;;;;;;23.77;14.32;;;;;;;;;;5068801;28;20105;-67
2022/10/23 06:56:37;;;;;;;20.65;12.68;;;;;;;;;;5069806;28;20051;-67
2022/10/23 06:59:06;;;;;;;25.13;13.68;;;;;;;;;;5073837;28;20048;-67
2022/10/23 07:01:32;;;;;;;28.52;14.18;;;;;;;;;;5055791;28;20433;-67
2022/10/23 07:03:58;;;;;;;27.60;14.10;;;;;;;;;;5073353;28;20036;-67
2022/10/23 07:06:24;;;;;;;26.13;14.13;;;;;;;;;;5073779;28;20043;-67
2022/10/23 07:08:51;;;;;;;27.95;14.32;;;;;;;;;;5073864;28;20036;-67
2022/10/23 07:11:17;;;;;;;21.83;13.75;;;;;;;;;;5071875;28;20041;-67
2022/10/23 07:13:43;;;;;;;21.48;13.02;;;;;;;;;;5073532;28;20558;-67
2022/10/23 07:16:14;;;;;;;23.77;13.80;;;;;;;;;;5073611;28;20106;-67
2022/10/23 07:18:40;;;;;;;20.42;13.13;;;;;;;;;;5071759;28;20047;-67
2022/10/23 07:21:06;;;;;;;23.25;13.10;;;;;;;;;;5072488;28;20399;-67
2022/10/23 07:23:32;;;;;;;24.80;13.35;;;;;;;;;;5072085;28;20048;-67
2022/10/23 07:26:08;;;;;;;22.83;13.13;;;;;;;;;;5071875;28;20370;-67
2022/10/23 07:28:34;;;;;;;20.75;13.48;;;;;;;;;;5070613;28;20053;-67
2022/10/23 07:31:01;;;;;;;23.50;13.30;;;;;;;;;;5070693;28;20149;-67
2022/10/23 07:33:27;;;;;;;22.23;14.02;;;;;;;;;;5071904;28;20040;-67
2022/10/23 07:35:53;;;;;;;22.60;13.35;;;;;;;;;;5070803;28;20040;-67
2022/10/23 07:38:19;;;;;;;22.23;13.70;;;;;;;;;;5072191;28;20051;-67
2022/10/23 07:40:45;;;;;;;25.17;12.82;;;;;;;;;;5071905;28;20052;-67
2022/10/23 07:43:11;;;;;;;26.25;13.77;;;;;;;;;;5071969;28;20040;-67
2022/10/23 07:45:37;;;;;;;23.40;12.73;;;;;;;;;;5070843;28;20046;-67
2022/10/23 07:48:03;;;;;;;24.40;12.98;;;;;;;;;;5069990;28;20458;-67
2022/10/23 07:50:29;;;;;;;19.98;11.55;;;;;;;;;;5071904;28;20090;-67
2022/10/23 07:52:57;;;;;;;21.02;12.77;;;;;;;;;;5071894;28;20444;-67
2022/10/23 07:55:23;;;;;;;23.25;12.95;;;;;;;;;;5071520;28;20419;-67
2022/10/23 07:57:49;;;;;;;26.25;12.20;;;;;;;;;;5071909;28;20090;-67
2022/10/23 08:00:15;;;;;;;22.88;12.15;;;;;;;;;;5071813;28;20478;-67
2022/10/23 08:02:41;;;;;;;23.83;13.18;;;;;;;;;;5071343;28;20444;-67
2022/10/23 08:05:07;;;;;;;23.88;13.05;;;;;;;;;;5070408;28;20052;-67
2022/10/23 08:07:33;;;;;;;26.90;13.20;;;;;;;;;;5071165;28;20086;-67
2022/10/23 08:09:59;;;;;;;21.05;12.90;;;;;;;;;;5071244;28;20036;-67
2022/10/23 08:12:25;;;;;;;22.88;12.18;;;;;;;;;;5071168;28;20098;-67
2022/10/23 08:14:51;;;;;;;20.38;11.75;;;;;;;;;;5071243;28;20055;-67
2022/10/23 08:17:17;;;;;;;23.33;12.45;;;;;;;;;;5053255;28;20040;-67
2022/10/23 08:19:45;;;;;;;23.27;12.25;;;;;;;;;;5071226;28;20093;-67
2022/10/23 08:22:11;;;;;;;22.45;12.27;;;;;;;;;;5069544;28;20113;-67
2022/10/23 08:24:37;;;;;;;17.25;10.90;;;;;;;;;;5071019;28;20040;-67
2022/10/23 08:27:03;;;;;;;18.27;11.27;;;;;;;;;;5069840;28;20169;-67
2022/10/23 08:29:29;;;;;;;22.23;11.85;;;;;;;;;;5070999;28;20041;-67
2022/10/23 08:31:56;;;;;;;25.13;11.95;;;;;;;;;;5070463;28;20040;-67
2022/10/23 08:34:22;;;;;;;23.73;11.50;;;;;;;;;;5070842;28;20053;-67
2022/10/23 08:36:48;;;;;;;24.17;11.40;;;;;;;;;;5069608;28;20394;-67
2022/10/23 08:39:14;;;;;;;24.48;11.35;;;;;;;;;;5070108;28;20451;-67
2022/10/23 08:41:42;;;;;;;17.45;10.50;;;;;;;;;;5069584;28;20525;-67
2022/10/23 08:44:20;;;;;;;22.88;10.93;;;;;;;;;;5070917;28;20475;-67
2022/10/23 08:46:52;;;;;;;18.98;10.82;;;;;;;;;;5070328;28;20036;-67
2022/10/23 08:49:30;;;;;;;21.08;11.43;;;;;;;;;;5070641;28;20096;-67
2022/10/23 08:51:58;;;;;;;18.30;10.63;;;;;;;;;;5069062;28;20071;-67
2022/10/23 08:54:27;;;;;;;18.70;10.85;;;;;;;;;;5070093;28;20036;-67
2022/10/23 08:57:16;;;;;;;20.23;10.40;;;;;;;;;;5070675;28;20128;-67
2022/10/23 08:59:48;;;;;;;14.70;9.23;;;;;;;;;;5067194;28;20126;-67
2022/10/23 09:02:32;;;;;;;17.52;10.35;;;;;;;;;;5070150;28;20047;-67
2022/10/23 09:04:58;;;;;;;18.33;10.80;;;;;;;;;;5070518;28;20044;-67
2022/10/23 09:07:48;;;;;;;16.40;10.30;;;;;;;;;;5068587;28;20086;-67
2022/10/23 09:10:23;;;;;;;20.65;9.63;;;;;;;;;;5069896;28;20078;-67
2022/10/23 09:12:49;;;;;;;20.05;9.80;;;;;;;;;;5069939;28;20053;-67
2022/10/23 09:15:20;;;;;;;18.75;9.65;;;;;;;;;;5070271;28;20037;-67
2022/10/23 09:17:47;;;;;;;20.63;9.93;;;;;;;;;;5068188;28;20426;-67
2022/10/23 09:20:19;;;;;;;12.30;9.23;;;;;;;;;;5067988;28;20144;-67
2022/10/23 09:22:47;;;;;;;16.58;8.73;;;;;;;;;;5070051;28;20115;-67
2022/10/23 09:25:17;;;;;;;16.38;8.68;;;;;;;;;;5069545;28;20075;-68
2022/10/23 09:27:48;;;;;;;18.20;8.75;;;;;;;;;;5069954;28;20037;-68
2022/10/23 09:30:24;;;;;;;16.33;9.15;;;;;;;;;;5069783;28;20045;-68
2022/10/23 09:32:50;;;;;;;21.77;9.15;;;;;;;;;;5070013;28;20044;-67
2022/10/23 09:35:20;;;;;;;16.10;8.50;;;;;;;;;;5069946;28;20055;-67
2022/10/23 09:37:47;;;;;;;16.13;9.70;;;;;;;;;;5069146;28;20044;-67
2022/10/23 09:40:18;;;;;;;15.85;8.73;;;;;;;;;;5069672;28;20417;-67
2022/10/23 09:42:50;;;;;;;15.90;8.77;;;;;;;;;;5069682;28;20055;-67
2022/10/23 09:45:24;;;;;;;13.98;8.13;;;;;;;;;;5069212;28;20615;-67
2022/10/23 09:47:50;;;;;;;19.55;8.70;;;;;;;;;;5068129;28;20044;-67
2022/10/23 09:50:18;;;;;;;13.90;8.45;;;;;;;;;;5069614;28;20063;-67
2022/10/23 09:52:44;;;;;;;16.45;9.15;;;;;;;;;;5068932;28;20044;-67
2022/10/23 09:55:22;;;;;;;17.75;8.75;;;;;;;;;;5068161;28;20182;-67
2022/10/23 09:57:49;;;;;;;13.82;7.90;;;;;;;;;;5069592;28;20048;-67
2022/10/23 10:00:25;;;;;;;16.55;8.20;;;;;;;;;;5069041;28;20048;-67
2022/10/23 10:02:56;;;;;;;16.75;7.72;;;;;;;;;;5069221;28;20040;-67
2022/10/23 10:05:22;;;;;;;16.05;8.20;;;;;;;;;;5069127;28;20131;-67
2022/10/23 10:08:06;;;;;;;15.00;7.45;;;;;;;;;;5069163;28;20503;-67
2022/10/23 10:10:38;;;;;;;14.57;7.75;;;;;;;;;;5068000;28;20475;-67
2022/10/23 10:13:22;;;;;;;12.63;7.28;;;;;;;;;;5069174;28;20521;-67
2022/10/23 10:15:55;;;;;;;16.95;7.47;;;;;;;;;;5067642;28;20491;-67
2022/10/23 10:18:25;;;;;;;16.75;8.07;;;;;;;;;;5069173;28;20089;-67
2022/10/23 10:21:30;;;;;;;16.58;7.85;;;;;;;;;;5067808;28;20056;-67
2022/10/23 10:24:01;;;;;;;15.32;7.15;;;;;;;;;;5046065;28;20136;-67
2022/10/23 10:26:37;;;;;;;12.90;7.03;;;;;;;;;;5046388;28;20048;-67
2022/10/23 10:29:09;;;;;;;17.60;6.57;;;;;;;;;;5059079;28;20044;-67
2022/10/23 10:31:45;;;;;;;12.63;6.53;;;;;;;;;;5072149;28;20041;-67
2022/10/23 10:34:25;;;;;;;14.50;6.45;;;;;;;;;;5073348;28;20043;-67
2022/10/23 10:36:55;;;;;;;12.85;6.15;;;;;;;;;;5073366;28;20505;-67
2022/10/23 10:39:31;;;;;;;14.38;6.00;;;;;;;;;;5073235;28;20102;-67
2022/10/23 10:42:09;;;;;;;11.40;5.90;;;;;;;;;;5054971;28;20048;-67
2022/10/23 10:44:47;;;;;;;11.38;6.53;;;;;;;;;;5072866;28;20116;-67
2022/10/23 10:47:22;;;;;;;13.15;5.88;;;;;;;;;;5073035;28;20135;-67
2022/10/23 10:49:53;;;;;;;12.68;6.55;;;;;;;;;;5072828;28;20037;-67
2022/10/23 10:52:25;;;;;;;15.88;6.72;;;;;;;;;;5072644;28;20075;-67
2022/10/23 10:54:54;;;;;;;13.77;6.85;;;;;;;;;;5072777;28;20480;-67
2022/10/23 10:57:31;;;;;;;12.52;5.97;;;;;;;;;;5072809;28;20045;-67
2022/10/23 11:00:00;;;;;;;13.93;5.80;;;;;;;;;;5070926;28;20082;-67
2022/10/23 11:02:28;;;;;;;10.23;5.90;;;;;;;;;;5072670;28;20102;-67
2022/10/23 11:05:13;;;;;;;9.95;5.63;;;;;;;;;;5072865;28;20102;-67
2022/10/23 11:07:42;;;;;;;9.68;5.72;;;;;;;;;;5072192;28;20446;-67
2022/10/23 11:10:17;;;;;;;17.25;5.88;;;;;;;;;;5072596;28;20033;-67
2022/10/23 11:12:47;;;;;;;11.43;6.00;;;;;;;;;;5071192;28;20049;-67
2022/10/23 11:15:14;;;;;;;10.48;5.28;;;;;;;;;;5071822;28;20041;-67
2022/10/23 11:17:43;;;;;;;15.55;5.50;;;;;;;;;;5072336;28;20044;-67
2022/10/23 11:20:09;;;;;;;13.85;6.45;;;;;;;;;;5072205;28;20076;-67
2022/10/23 11:22:37;;;;;;;12.20;5.72;;;;;;;;;;5072072;28;20376;-67
2022/10/23 11:25:22;;;;;;;8.45;5.15;;;;;;;;;;5071054;28;20094;-67
2022/10/23 11:27:48;;;;;;;14.63;5.32;;;;;;;;;;5072557;28;20478;-67
2022/10/23 11:30:32;;;;;;;16.08;5.90;;;;;;;;;;5071922;28;20044;-67
2022/10/23 11:33:27;;;;;;;13.57;5.43;;;;;;;;;;5072448;28;20051;-67
2022/10/23 11:36:05;;;;;;;11.50;5.88;;;;;;;;;;5070690;28;20051;-67
2022/10/23 11:38:34;;;;;;;11.00;5.05;;;;;;;;;;5070255;28;20060;-67
2022/10/23 11:41:02;;;;;;;11.63;5.25;;;;;;;;;;5072121;28;20040;-67
2022/10/23 11:43:34;;;;;;;12.68;5.45;;;;;;;;;;5071084;28;20045;-67
2022/10/23 11:46:33;;;;;;;7.80;4.93;;;;;;;;;;5071958;28;20123;-67
2022/10/23 11:49:01;;;;;;;11.82;5.30;;;;;;;;;;5048311;28;20283;-67
2022/10/23 11:51:29;;;;;;;6.40;4.63;;;;;;;;;;5071399;28;20048;-67
2022/10/23 11:54:10;;;;;;;15.15;5.28;;;;;;;;;;5072063;28;20518;-67
2022/10/23 11:56:37;;;;;;;12.90;5.38;;;;;;;;;;5071949;28;20036;-67
2022/10/23 11:59:23;;;;;;;9.85;5.07;;;;;;;;;;5069722;28;20048;-67
2022/10/23 12:01:51;;;;;;;12.32;4.30;;;;;;;;;;5063107;28;20464;-67
2022/10/23 12:04:25;;;;;;;11.15;5.60;;;;;;;;;;5071917;28;20033;-67
2022/10/23 12:07:01;;;;;;;9.32;4.70;;;;;;;;;;5071252;28;20041;-67
2022/10/23 12:09:30;;;;;;;13.18;5.25;;;;;;;;;;5070383;28;20083;-67
2022/10/23 12:12:08;;;;;;;13.63;4.90;;;;;;;;;;5071160;28;20053;-67
2022/10/23 12:14:44;;;;;;;10.05;4.55;;;;;;;;;;5071318;28;20372;-67
2022/10/23 12:17:22;;;;;;;17.52;5.03;;;;;;;;;;5070044;28;20103;-67
2022/10/23 12:19:49;;;;;;;15.75;4.88;;;;;;;;;;5053063;28;20056;-67
2022/10/23 12:22:15;;;;;;;11.95;4.40;;;;;;;;;;5069540;28;20037;-67
2022/10/23 12:25:08;;;;;;;9.63;4.45;;;;;;;;;;5069841;28;20227;-67
2022/10/23 12:27:37;;;;;;;7.90;4.68;;;;;;;;;;5047976;28;20123;-67
2022/10/23 12:30:18;;;;;;;9.68;4.78;;;;;;;;;;5050801;28;20243;-67
2022/10/23 12:33:00;;;;;;;11.50;5.18;;;;;;;;;;5051243;28;20503;-67
2022/10/23 12:35:38;;;;;;;11.60;4.05;;;;;;;;;;5050804;28;20068;-67
2022/10/23 12:38:16;;;;;;;10.35;4.82;;;;;;;;;;5050783;28;20041;-67
2022/10/23 12:40:45;;;;;;;8.00;4.10;;;;;;;;;;5050645;28;20056;-67
2022/10/23 12:43:22;;;;;;;10.07;4.57;;;;;;;;;;5050394;28;20480;-67
2022/10/23 12:45:49;;;;;;;9.38;4.15;;;;;;;;;;5049401;28;20202;-67
2022/10/23 12:48:20;;;;;;;7.45;4.47;;;;;;;;;;5082758;28;20073;-67
2022/10/23 12:50:49;;;;;;;11.80;4.10;;;;;;;;;;5049955;28;20044;-67
2022/10/23 12:53:17;;;;;;;15.85;4.35;;;;;;;;;;5050067;28;20056;-67
2022/10/23 12:55:48;;;;;;;9.32;4.20;;;;;;;;;;5049753;28;20033;-67
2022/10/23 12:58:21;;;;;;;9.25;3.75;;;;;;;;;;5050470;28;20124;-67
2022/10/23 13:00:51;;;;;;;10.73;4.45;;;;;;;;;;5065878;28;20099;-67
2022/10/23 13:03:16;;;;;;;8.05;3.60;;;;;;;;;;5050179;28;20060;-67
2022/10/23 13:05:43;;;;;;;9.25;4.13;;;;;;;;;;5053483;28;20475;-67
2022/10/23 13:08:09;;;;;;;11.25;4.32;;;;;;;;;;5069205;28;20048;-67
2022/10/23 13:10:35;;;;;;;10.55;4.13;;;;;;;;;;5070055;28;20055;-67
2022/10/23 13:13:03;;;;;;;7.20;4.00;;;;;;;;;;5069527;28;20052;-67
2022/10/23 13:15:37;;;;;;;9.73;4.15;;;;;;;;;;5069007;28;20475;-67
2022/10/23 13:18:05;;;;;;;8.07;4.20;;;;;;;;;;5068401;28;20048;-67
2022/10/23 13:20:40;;;;;;;8.18;3.72;;;;;;;;;;5069815;28;20185;-67
2022/10/23 13:23:09;;;;;;;9.48;3.33;;;;;;;;;;5070173;28;20126;-67
2022/10/23 13:25:36;;;;;;;11.27;3.70;;;;;;;;;;5070229;28;20474;-67
2022/10/23 13:28:11;;;;;;;12.52;4.18;;;;;;;;;;5069571;28;20048;-67
2022/10/23 13:30:39;;;;;;;6.97;4.00;;;;;;;;;;5070038;28;20497;-67
2022/10/23 13:33:15;;;;;;;13.27;4.55;;;;;;;;;;5070014;28;20051;-67
2022/10/23 13:35:41;;;;;;;7.28;3.90;;;;;;;;;;5069474;28;20048;-67
2022/10/23 13:38:07;;;;;;;7.93;3.88;;;;;;;;;;5068284;28;20537;-67
2022/10/23 13:40:33;;;;;;;9.55;3.83;;;;;;;;;;5069743;28;20041;-67
2022/10/23 13:42:59;;;;;;;12.35;4.00;;;;;;;;;;5067778;28;20436;-67
2022/10/23 13:45:26;;;;;;;10.88;4.20;;;;;;;;;;5069598;28;20124;-67
2022/10/23 13:47:52;;;;;;;8.27;3.33;;;;;;;;;;5069765;28;20033;-67
2022/10/23 13:50:18;;;;;;;8.95;3.53;;;;;;;;;;5069020;28;20479;-67
2022/10/23 13:52:44;;;;;;;9.38;3.20;;;;;;;;;;5069843;28;20036;-67
2022/10/23 13:55:19;;;;;;;11.23;3.75;;;;;;;;;;5069746;28;20036;-67
2022/10/23 13:57:45;;;;;;;8.40;3.80;;;;;;;;;;5068912;28;20087;-67
2022/10/23 14:00:11;;;;;;;12.48;3.83;;;;;;;;;;5067990;28;20072;-67
2022/10/23 14:02:37;;;;;;;10.30;4.30;;;;;;;;;;5068188;28;20425;-67
2022/10/23 14:05:04;;;;;;;8.95;3.53;;;;;;;;;;5067092;28;20119;-67
2022/10/23 14:07:29;;;;;;;12.55;3.80;;;;;;;;;;5069758;28;20341;-67
2022/10/23 14:09:55;;;;;;;9.25;3.83;;;;;;;;;;5069444;28;20443;-67
2022/10/23 14:12:21;;;;;;;9.20;3.67;;;;;;;;;;5068910;28;20463;-67
2022/10/23 14:14:53;;;;;;;5.85;3.40;;;;;;;;;;5069496;28;20051;-67
2022/10/23 14:17:20;;;;;;;7.68;3.45;;;;;;;;;;5069475;28;20728;-67
2022/10/23 14:19:46;;;;;;;11.85;3.17;;;;;;;;;;5068915;28;20445;-67
2022/10/23 14:22:12;;;;;;;7.70;3.60;;;;;;;;;;5069481;28;20040;-67
2022/10/23 14:24:38;;;;;;;5.90;3.20;;;;;;;;;;5069490;28;20036;-67
2022/10/23 14:27:04;;;;;;;6.55;3.40;;;;;;;;;;5069004;28;20044;-67
2022/10/23 14:29:30;;;;;;;8.70;3.75;;;;;;;;;;5069014;28;20442;-67
2022/10/23 14:31:56;;;;;;;9.55;2.80;;;;;;;;;;5069372;28;20051;-67
2022/10/23 14:34:22;;;;;;;6.82;3.20;;;;;;;;;;5068770;28;20410;-67
2022/10/23 14:36:48;;;;;;;10.90;3.80;;;;;;;;;;5069431;28;20033;-67